Zanoni, Virginia
Current Conditions -  °F | °C
As of 1:35 PM on Monday 20 Oct 2014 (Local Time) from KW75 Reporting Station
Clear Clear  
Wind Chill: 64°   Ceiling: Unl
Heat Index: 64°   Visibility: 10mi
Dew Point: 40°   Wind: 7mph
Humidity: 42%   Direction: 220°SW
Pressure: 30.06"   Gusts: 17mph
Location:  37.39°N, 76.49°W
Report Text: KW75 201735Z AUTO 22006G15KT 10SM CLR 18/04 A3006 RMK AO1 T01750044
Loading
Personal Weather Stations






























Interactive Weather Map
Tropical Storm Tracking
New forecast layout! Learn more

10-Day Weather Forecast

Advertisements
Track Severe Weather on mobile